»·PEaware :: UAL576 KSNA-KLAS

UAL576 :: KSNA-KLAS

FLIGHT INFORMATION

Flight Status: Arrived
Operator:
United Airlines
More flights by this operator :: More flights under this callsign
Pilot: Anonymous 8274 (8274)
Aircraft: BOEING 737-200
(B732)
More flights by this aircraft type
Origin: KSNA John Wayne-Orange Co
United States
Destination: KLAS McCarran Intl
United States
More flights between these airports :: More routes between these airports
Route: MUSEL8 DAG CLARR3
File this flight plan on PilotEdge
Remarks:
Altitude:
(Current/Filed)
29,000ft
Speed:
(Current/Filed)
460kts
Departed: 11-Jul-18 07:09 PM
Arrived: 11-Jul-18 07:55 PM
Distance/Time
Traveled:
197nm/0:46
Distance/Time
To Go:
Arrived

Flight Plot

Page will automatically refresh every two minutes.

Flight plan parsing failed; only flown route is shown


Map Options




Map Legend


Flown Route
Filed Route
Departure Airport
Arrival Airport
Navaid (VOR, NDB)
Fix

Horizontal Profiles

Position Reports

Time Latitude Longitude Heading Altitude Ground
Speed
11-Jul-18 18:18 33.679319 -117.862314 116 65ft 0kts
11-Jul-18 18:19 33.679319 -117.862314 116 65ft 0kts
11-Jul-18 18:20 33.679319 -117.862314 116 65ft 0kts
11-Jul-18 18:21 33.679319 -117.862314 116 65ft 0kts
11-Jul-18 18:22 33.679319 -117.862314 116 65ft 0kts
11-Jul-18 18:23 33.679319 -117.862314 116 65ft 0kts
11-Jul-18 18:24 33.679319 -117.862314 116 65ft 0kts
11-Jul-18 18:25 33.679319 -117.862314 116 65ft 0kts
11-Jul-18 18:26 33.679319 -117.862314 116 65ft 0kts
11-Jul-18 18:27 33.679319 -117.862314 116 65ft 0kts
11-Jul-18 18:28 33.679319 -117.862314 116 65ft 0kts
11-Jul-18 18:29 33.679319 -117.862314 116 65ft 0kts
11-Jul-18 18:30 33.679319 -117.862314 116 65ft 0kts
11-Jul-18 18:31 33.679319 -117.862314 116 65ft 0kts
11-Jul-18 18:32 33.679319 -117.862314 116 65ft 0kts
11-Jul-18 18:33 33.679319 -117.862314 116 65ft 0kts
11-Jul-18 18:34 33.679319 -117.862314 116 65ft 0kts
11-Jul-18 18:35 33.679319 -117.862314 116 65ft 0kts
11-Jul-18 18:36 33.679470 -117.862544 141 65ft 2kts
11-Jul-18 18:37 33.680031 -117.862662 199 65ft 2kts
11-Jul-18 18:38 33.680570 -117.862343 206 65ft 2kts
11-Jul-18 18:39 33.680836 -117.862183 206 65ft 0kts
11-Jul-18 18:40 33.680836 -117.862183 206 65ft 0kts
11-Jul-18 18:41 33.680836 -117.862183 206 65ft 0kts
11-Jul-18 18:42 33.680836 -117.862183 206 65ft 0kts
11-Jul-18 18:43 33.680836 -117.862183 206 65ft 0kts
11-Jul-18 18:44 33.680836 -117.862183 206 65ft 0kts
11-Jul-18 18:45 33.680836 -117.862183 206 65ft 0kts
11-Jul-18 18:46 33.680836 -117.862183 206 65ft 0kts
11-Jul-18 18:47 33.680836 -117.862183 206 65ft 0kts
11-Jul-18 18:48 33.680836 -117.862183 206 65ft 0kts
11-Jul-18 18:49 33.680836 -117.862183 206 65ft 0kts
11-Jul-18 18:50 33.680836 -117.862183 206 65ft 0kts
11-Jul-18 18:51 33.680836 -117.862183 206 65ft 0kts
11-Jul-18 18:52 33.680836 -117.862183 206 65ft 0kts
11-Jul-18 18:53 33.680836 -117.862183 206 65ft 0kts
11-Jul-18 18:54 33.680836 -117.862183 206 65ft 0kts
11-Jul-18 18:55 33.680836 -117.862183 206 65ft 0kts
11-Jul-18 18:56 33.680836 -117.862183 206 65ft 0kts
11-Jul-18 18:57 33.680835 -117.862184 206 65ft 0kts
11-Jul-18 18:58 33.680789 -117.862213 209 65ft 0kts
11-Jul-18 18:59 33.680789 -117.862213 209 65ft 0kts
11-Jul-18 19:00 33.680789 -117.862213 209 65ft 0kts
11-Jul-18 19:01 33.680789 -117.862213 209 65ft 0kts
11-Jul-18 19:02 33.680789 -117.862213 209 65ft 0kts
11-Jul-18 19:03 33.680789 -117.862213 209 65ft 0kts
11-Jul-18 19:04 33.680789 -117.862213 209 65ft 0kts
11-Jul-18 19:05 33.680789 -117.862213 209 65ft 0kts
11-Jul-18 19:06 33.680789 -117.862213 209 65ft 0kts
11-Jul-18 19:07 33.680789 -117.862213 209 65ft 0kts
11-Jul-18 19:08 33.680637 -117.863008 297 65ft 0kts
11-Jul-18 19:09 33.680719 -117.863194 297 65ft 8kts
11-Jul-18 19:10 33.677362 -117.867778 207 65ft 88kts
11-Jul-18 19:11 33.642849 -117.886792 188 1635ft 157kts
11-Jul-18 19:12 33.594186 -117.894763 193 3177ft 213kts
11-Jul-18 19:13 33.582057 -117.960610 291 5374ft 267kts
11-Jul-18 19:14 33.614479 -118.045276 313 7997ft 289kts
11-Jul-18 19:15 33.690032 -118.065147 359 10632ft 292kts
11-Jul-18 19:16 33.779160 -118.068575 359 12123ft 333kts
11-Jul-18 19:17 33.871089 -118.062302 29 14126ft 342kts
11-Jul-18 19:18 33.932639 -117.975911 53 15981ft 349kts
11-Jul-18 19:19 33.978233 -117.895026 59 17372ft 357kts
11-Jul-18 19:20 34.052256 -117.816380 32 18791ft 369kts
11-Jul-18 19:21 34.129487 -117.737891 50 20111ft 375kts
11-Jul-18 19:22 34.196973 -117.640820 51 21307ft 383kts
11-Jul-18 19:23 34.265445 -117.541217 46 22369ft 391kts
11-Jul-18 19:24 34.341505 -117.446591 46 23431ft 395kts
11-Jul-18 19:25 34.414207 -117.346250 50 24321ft 401kts
11-Jul-18 19:26 34.486456 -117.242910 50 25149ft 406kts
11-Jul-18 19:27 34.559642 -117.138389 50 25889ft 411kts
11-Jul-18 19:28 34.633810 -117.032406 50 26557ft 415kts
11-Jul-18 19:29 34.710105 -116.927783 48 27246ft 416kts
11-Jul-18 19:30 34.788385 -116.824080 48 27778ft 420kts
11-Jul-18 19:31 34.864953 -116.717026 51 28568ft 418kts
11-Jul-18 19:32 34.939839 -116.609354 48 28561ft 412kts
11-Jul-18 19:33 35.019716 -116.510823 48 26222ft 404kts
11-Jul-18 19:34 35.093249 -116.409596 49 23979ft 394kts
11-Jul-18 19:35 35.166312 -116.316130 45 23965ft 387kts
11-Jul-18 19:36 35.241745 -116.225387 45 23966ft 383kts
11-Jul-18 19:37 35.318403 -116.133099 45 23348ft 390kts
11-Jul-18 19:38 35.394673 -116.041086 45 21170ft 381kts
11-Jul-18 19:39 35.467434 -115.950055 48 19160ft 368kts
11-Jul-18 19:40 35.534993 -115.858874 48 17186ft 357kts
11-Jul-18 19:41 35.600588 -115.770462 48 15269ft 347kts
11-Jul-18 19:42 35.664579 -115.684468 48 13393ft 337kts
11-Jul-18 19:43 35.722845 -115.606018 50 13034ft 295kts
11-Jul-18 19:44 35.775344 -115.528138 51 11984ft 299kts
11-Jul-18 19:45 35.827876 -115.450433 51 10424ft 294kts
11-Jul-18 19:46 35.878838 -115.375987 51 8833ft 295kts
11-Jul-18 19:47 35.930774 -115.299300 51 7277ft 295kts
11-Jul-18 19:48 35.981525 -115.223661 51 6335ft 290kts
11-Jul-18 19:49 36.034773 -115.149849 42 5010ft 284kts
11-Jul-18 19:50 36.090879 -115.092937 32 4514ft 253kts
11-Jul-18 19:51 36.148421 -115.064067 14 3801ft 210kts
11-Jul-18 19:52 36.176039 -115.101298 240 3294ft 155kts
11-Jul-18 19:53 36.143757 -115.127516 203 2970ft 136kts
11-Jul-18 19:54 36.108673 -115.147788 203 2382ft 134kts
11-Jul-18 19:55 36.081438 -115.163365 204 2120ft 47kts
11-Jul-18 19:56 36.078014 -115.163674 89 2120ft 0kts
11-Jul-18 19:57 36.078010 -115.162539 90 2120ft 12kts
11-Jul-18 19:58 36.078009 -115.153686 92 2120ft 32kts
11-Jul-18 19:59 36.077493 -115.142567 92 2120ft 24kts
11-Jul-18 20:00 36.081709 -115.140641 47 2120ft 18kts
11-Jul-18 20:01 36.082236 -115.139959 45 2120ft 0kts
11-Jul-18 20:02 36.082236 -115.139959 45 2120ft 0kts
11-Jul-18 20:03 36.082236 -115.139959 45 2120ft 0kts
11-Jul-18 20:04 36.082236 -115.139959 45 2120ft 0kts
11-Jul-18 20:05 36.082236 -115.139959 45 2120ft 0kts
11-Jul-18 20:06 36.082236 -115.139959 45 2120ft 0kts
11-Jul-18 20:07 36.082236 -115.139959 45 2120ft 0kts
11-Jul-18 20:08 36.082236 -115.139959 45 2120ft 0kts
11-Jul-18 20:09 36.082236 -115.139959 45 2120ft 0kts
11-Jul-18 20:10 36.082236 -115.139959 45 2120ft 0kts

Navigation Log

Ident Type
Flight plan parsing failed, navigation log unavailable